createdAt,value
2019-02-05T00:00:37.368Z,102330.70
2019-02-05T00:03:12.257Z,102333.92
2019-02-05T00:05:40.837Z,102332.00
2019-02-05T00:08:09.910Z,102345.09
2019-02-05T00:10:38.604Z,102335.37
2019-02-05T00:13:07.234Z,102334.20
2019-02-05T00:15:36.024Z,102336.16
2019-02-05T00:18:04.913Z,102329.80
2019-02-05T00:20:33.535Z,102345.43
2019-02-05T00:23:02.104Z,102340.82
2019-02-05T00:25:30.730Z,102351.05
2019-02-05T00:27:59.338Z,102347.48
2019-02-05T00:30:28.327Z,102355.26
2019-02-05T00:32:56.953Z,102350.59
2019-02-05T00:35:25.549Z,102359.71
2019-02-05T00:37:54.174Z,102358.86
2019-02-05T00:40:23.785Z,102359.67
2019-02-05T00:42:53.335Z,102359.28
2019-02-05T00:45:22.295Z,102368.50
2019-02-05T00:47:50.962Z,102366.23
2019-02-05T00:50:20.035Z,102369.84
2019-02-05T00:52:48.790Z,102371.03
2019-02-05T00:55:20.973Z,102376.88
2019-02-05T00:57:49.969Z,102376.25
2019-02-05T01:00:27.305Z,102367.38
2019-02-05T01:02:56.316Z,102375.09
2019-02-05T01:05:25.198Z,102373.90
2019-02-05T01:07:53.963Z,102378.09
2019-02-05T01:10:23.960Z,102373.88
2019-02-05T01:12:53.041Z,102370.51
2019-02-05T01:15:23.622Z,102370.35
2019-02-05T01:17:52.348Z,102369.91
2019-02-05T01:20:22.629Z,102367.42
2019-02-05T01:22:51.556Z,102375.37
2019-02-05T01:25:20.957Z,102364.41
2019-02-05T01:27:50.043Z,102369.50
2019-02-05T01:30:21.888Z,102381.71
2019-02-05T01:32:50.559Z,102374.33
2019-02-05T01:35:19.380Z,102375.91
2019-02-05T01:37:48.039Z,102379.41
2019-02-05T01:40:18.854Z,102384.27
2019-02-05T01:42:47.542Z,102385.76
2019-02-05T01:45:18.510Z,102388.80
2019-02-05T01:47:47.364Z,102389.64
2019-02-05T01:50:18.758Z,102388.65
2019-02-05T01:52:47.312Z,102391.34
2019-02-05T01:55:16.138Z,102389.98
2019-02-05T01:57:44.929Z,102389.69
2019-02-05T02:00:19.291Z,102395.02
2019-02-05T02:02:48.006Z,102395.93
2019-02-05T02:05:16.904Z,102397.13
2019-02-05T02:07:46.149Z,102396.80
2019-02-05T02:10:17.872Z,102401.00
2019-02-05T02:12:46.541Z,102399.75
2019-02-05T02:15:15.235Z,102394.67
2019-02-05T02:17:43.859Z,102389.95
2019-02-05T02:20:17.483Z,102384.57
2019-02-05T02:22:46.782Z,102387.19
2019-02-05T02:25:15.791Z,102377.16
2019-02-05T02:27:44.613Z,102379.81
2019-02-05T02:30:16.135Z,102387.81
2019-02-05T02:32:44.671Z,102388.11
2019-02-05T02:35:13.993Z,102391.11
2019-02-05T02:37:42.516Z,102392.84
2019-02-05T02:40:12.085Z,102394.04
2019-02-05T02:42:40.867Z,102398.55
2019-02-05T02:45:12.323Z,102392.11
2019-02-05T02:47:40.969Z,102400.91
2019-02-05T02:50:12.488Z,102394.67
2019-02-05T02:52:41.125Z,102392.92
2019-02-05T02:55:10.061Z,102388.63
2019-02-05T02:57:38.688Z,102387.50
2019-02-05T03:00:13.086Z,102392.42
2019-02-05T03:02:41.669Z,102399.67
2019-02-05T03:05:12.679Z,102395.17
2019-02-05T03:07:41.395Z,102401.98
2019-02-05T03:10:15.711Z,102407.44
2019-02-05T03:12:44.282Z,102416.17
2019-02-05T03:15:12.880Z,102413.37
2019-02-05T03:17:41.445Z,102409.69
2019-02-05T03:20:13.193Z,102406.55
2019-02-05T03:22:44.973Z,102402.25
2019-02-05T03:25:17.467Z,102408.69
2019-02-05T03:27:46.363Z,102409.87
2019-02-05T03:30:17.494Z,102401.95
2019-02-05T03:32:46.275Z,102395.85
2019-02-05T03:35:15.333Z,102402.59
2019-02-05T03:37:44.094Z,102400.08
2019-02-05T03:40:30.769Z,102401.09
2019-02-05T03:42:59.775Z,102404.31
2019-02-05T03:45:29.713Z,102406.61
2019-02-05T03:48:03.829Z,102405.70
2019-02-05T03:50:38.143Z,102401.30
2019-02-05T03:53:21.761Z,102407.18
2019-02-05T03:55:55.947Z,102413.69
2019-02-05T03:58:39.201Z,102415.38
2019-02-05T04:01:19.763Z,102411.87
2019-02-05T04:03:51.288Z,102413.37
2019-02-05T04:06:28.574Z,102418.24
2019-02-05T04:09:35.034Z,102414.69
2019-02-05T04:12:25.097Z,102423.55
2019-02-05T04:14:59.578Z,102412.91
2019-02-05T04:17:39.741Z,102412.81
2019-02-05T04:20:29.604Z,102413.02
2019-02-05T04:23:03.904Z,102406.02
2019-02-05T04:25:41.084Z,102412.19
2019-02-05T04:28:18.259Z,102413.34
2019-02-05T04:30:58.552Z,102412.42
2019-02-05T04:33:39.149Z,102419.80
2019-02-05T04:36:25.777Z,102417.95
2019-02-05T04:39:09.191Z,102415.73
2019-02-05T04:41:46.617Z,102416.52
2019-02-05T04:44:21.056Z,102416.28
2019-02-05T04:47:01.795Z,102414.27
2019-02-05T04:49:42.113Z,102428.00
2019-02-05T04:52:28.684Z,102433.24
2019-02-05T04:55:00.382Z,102439.73
2019-02-05T04:57:40.687Z,102440.15
2019-02-05T05:00:45.520Z,102444.73
2019-02-05T05:03:22.499Z,102443.91
2019-02-05T05:06:02.879Z,102435.75
2019-02-05T05:08:49.112Z,102432.48
2019-02-05T05:11:17.813Z,102437.80
2019-02-05T05:13:46.591Z,102433.34
2019-02-05T05:16:15.188Z,102437.98
2019-02-05T05:18:43.660Z,102438.38
2019-02-05T05:21:12.872Z,102443.34
2019-02-05T05:23:41.558Z,102439.57
2019-02-05T05:26:10.257Z,102428.45
2019-02-05T05:28:41.823Z,102435.89
2019-02-05T05:31:10.456Z,102427.63
2019-02-05T05:33:39.107Z,102429.03
2019-02-05T05:36:07.748Z,102429.69
2019-02-05T05:38:36.325Z,102437.47
2019-02-05T05:41:04.921Z,102435.41
2019-02-05T05:43:34.009Z,102442.04
2019-02-05T05:46:02.647Z,102441.31
2019-02-05T05:48:31.151Z,102446.95
2019-02-05T05:50:59.687Z,102455.02
2019-02-05T05:53:28.351Z,102454.61
2019-02-05T05:55:57.082Z,102461.00
2019-02-05T05:58:25.676Z,102458.42
2019-02-05T06:00:54.461Z,102458.68
2019-02-05T06:03:23.059Z,102454.84
2019-02-05T06:05:51.628Z,102457.53
2019-02-05T06:08:20.214Z,102455.95
2019-02-05T06:10:48.853Z,102456.48
2019-02-05T06:13:17.534Z,102461.08
2019-02-05T06:15:46.032Z,102469.01
2019-02-05T06:18:14.966Z,102471.15
2019-02-05T06:20:43.469Z,102465.30
2019-02-05T06:23:12.077Z,102473.44
2019-02-05T06:25:40.693Z,102483.31
2019-02-05T06:28:09.324Z,102486.39
2019-02-05T06:30:37.820Z,102488.77
2019-02-05T06:33:06.450Z,102488.27
2019-02-05T06:35:35.402Z,102490.20
2019-02-05T06:38:04.026Z,102496.89
2019-02-05T06:40:32.631Z,102496.89
2019-02-05T06:43:01.148Z,102487.33
2019-02-05T06:45:30.019Z,102495.50
2019-02-05T06:47:58.665Z,102487.37
2019-02-05T06:50:27.248Z,102499.48
2019-02-05T06:52:56.050Z,102506.52
2019-02-05T06:55:24.622Z,102504.47
2019-02-05T06:57:53.257Z,102503.78
2019-02-05T07:00:23.377Z,102503.15
2019-02-05T07:02:53.178Z,102503.91
2019-02-05T07:05:21.902Z,102502.99
2019-02-05T07:07:50.690Z,102505.97
2019-02-05T07:10:24.172Z,102514.16
2019-02-05T07:12:52.813Z,102512.86
2019-02-05T07:15:21.431Z,102513.11
2019-02-05T07:17:50.495Z,102520.12
2019-02-05T07:20:19.134Z,102530.97
2019-02-05T07:22:47.736Z,102533.50
2019-02-05T07:25:21.487Z,102535.29
2019-02-05T07:27:50.057Z,102533.37
2019-02-05T07:30:23.782Z,102527.54
2019-02-05T07:32:52.385Z,102527.78
2019-02-05T07:35:21.563Z,102533.45
2019-02-05T07:37:50.349Z,102532.05
2019-02-05T07:40:21.501Z,102538.74
2019-02-05T07:42:50.137Z,102538.91
2019-02-05T07:45:20.753Z,102542.52
2019-02-05T07:47:49.586Z,102547.73
2019-02-05T07:50:26.253Z,102546.14
2019-02-05T07:52:55.272Z,102553.42
2019-02-05T07:55:24.270Z,102552.19
2019-02-05T07:57:52.992Z,102552.66
2019-02-05T08:00:27.570Z,102559.97
2019-02-05T08:02:56.458Z,102568.04
2019-02-05T08:05:31.260Z,102570.34
2019-02-05T08:08:00.307Z,102575.56
2019-02-05T08:10:29.269Z,102576.33
2019-02-05T08:12:57.910Z,102571.98
2019-02-05T08:15:28.692Z,102570.61
2019-02-05T08:17:57.316Z,102577.67
2019-02-05T08:20:26.027Z,102583.00
2019-02-05T08:22:54.844Z,102577.41
2019-02-05T08:25:23.466Z,102586.04
2019-02-05T08:27:52.664Z,102585.38
2019-02-05T08:30:24.431Z,102580.47
2019-02-05T08:32:53.072Z,102572.98
2019-02-05T08:35:21.791Z,102578.70
2019-02-05T08:37:50.998Z,102577.34
2019-02-05T08:40:22.085Z,102575.62
2019-02-05T08:42:50.687Z,102582.82
2019-02-05T08:45:37.031Z,102583.38
2019-02-05T08:48:07.816Z,102585.08
2019-02-05T08:50:36.714Z,102594.04
2019-02-05T08:53:05.427Z,102594.04
2019-02-05T08:55:33.937Z,102590.91
2019-02-05T08:58:08.051Z,102590.33
2019-02-05T09:00:38.831Z,102594.98
2019-02-05T09:03:09.324Z,102595.04
2019-02-05T09:05:38.107Z,102605.13
2019-02-05T09:08:07.036Z,102606.48
2019-02-05T09:10:38.305Z,102601.88
2019-02-05T09:13:06.897Z,102604.67
2019-02-05T09:15:35.512Z,102605.05
2019-02-05T09:18:05.103Z,102602.23
2019-02-05T09:20:33.737Z,102607.95
2019-02-05T09:23:02.326Z,102606.20
2019-02-05T09:25:30.916Z,102615.17
2019-02-05T09:27:59.735Z,102617.44
2019-02-05T09:30:33.632Z,102615.34
2019-02-05T09:33:04.683Z,102625.16
2019-02-05T09:35:33.302Z,102617.02
2019-02-05T09:38:02.005Z,102612.65
2019-02-05T09:40:32.313Z,102615.70
2019-02-05T09:43:01.026Z,102618.72
2019-02-05T09:45:31.487Z,102619.66
2019-02-05T09:48:00.878Z,102626.93
2019-02-05T09:50:30.896Z,102621.25
2019-02-05T09:53:00.320Z,102626.80
2019-02-05T09:55:28.954Z,102628.50
2019-02-05T09:57:57.661Z,102632.49
2019-02-05T10:00:28.545Z,102635.18
2019-02-05T10:02:57.732Z,102643.30
2019-02-05T10:05:28.971Z,102643.52
2019-02-05T10:07:57.664Z,102643.14
2019-02-05T10:10:26.311Z,102643.78
2019-02-05T10:12:54.926Z,102652.12
2019-02-05T10:15:26.174Z,102651.16
2019-02-05T10:17:54.686Z,102662.05
2019-02-05T10:20:24.299Z,102663.64
2019-02-05T10:22:53.675Z,102668.66
2019-02-05T10:25:22.328Z,102667.52
2019-02-05T10:27:50.967Z,102669.11
2019-02-05T10:30:22.353Z,102671.56
2019-02-05T10:32:51.010Z,102669.23
2019-02-05T10:35:19.875Z,102672.74
2019-02-05T10:37:48.772Z,102674.66
2019-02-05T10:40:17.802Z,102675.48
2019-02-05T10:42:46.507Z,102671.33
2019-02-05T10:45:21.749Z,102665.70
2019-02-05T10:47:50.363Z,102669.59
2019-02-05T10:50:19.985Z,102670.91
2019-02-05T10:52:48.598Z,102670.74
2019-02-05T10:55:19.083Z,102670.83
2019-02-05T10:57:49.321Z,102672.30
2019-02-05T11:00:23.391Z,102674.70
2019-02-05T11:02:52.122Z,102661.75
2019-02-05T11:05:22.849Z,102666.20
2019-02-05T11:07:51.429Z,102665.06
2019-02-05T11:10:20.122Z,102662.19
2019-02-05T11:12:48.705Z,102663.66
2019-02-05T11:15:25.818Z,102664.31
2019-02-05T11:17:54.637Z,102662.19
2019-02-05T11:20:25.167Z,102655.89
2019-02-05T11:22:53.792Z,102651.01
2019-02-05T11:25:22.777Z,102645.05
2019-02-05T11:27:51.400Z,102644.56
2019-02-05T11:30:34.855Z,102638.61
2019-02-05T11:33:03.609Z,102628.89
2019-02-05T11:35:32.489Z,102630.03
2019-02-05T11:38:01.093Z,102628.02
2019-02-05T11:40:32.315Z,102622.25
2019-02-05T11:43:00.956Z,102623.14
2019-02-05T11:45:29.673Z,102620.58
2019-02-05T11:47:59.278Z,102625.08
2019-02-05T11:50:27.879Z,102619.77
2019-02-05T11:52:56.851Z,102626.44
2019-02-05T11:55:35.392Z,102627.63
2019-02-05T11:58:04.090Z,102630.95
2019-02-05T12:00:34.440Z,102638.59
2019-02-05T12:03:03.577Z,102637.84
2019-02-05T12:05:32.166Z,102643.02
2019-02-05T12:08:01.030Z,102643.03
2019-02-05T12:10:29.617Z,102644.82
2019-02-05T12:12:58.153Z,102643.73
2019-02-05T12:15:27.436Z,102650.47
2019-02-05T12:17:56.259Z,102642.48
2019-02-05T12:20:24.905Z,102629.42
2019-02-05T12:22:53.644Z,102632.55
2019-02-05T12:25:25.402Z,102627.55
2019-02-05T12:27:54.031Z,102635.75
2019-02-05T12:30:25.584Z,102635.67
2019-02-05T12:32:54.091Z,102638.66
2019-02-05T12:35:22.790Z,102633.13
2019-02-05T12:37:51.365Z,102633.31
2019-02-05T12:40:20.526Z,102640.58
2019-02-05T12:42:49.150Z,102615.72
2019-02-05T12:45:31.874Z,102632.12
2019-02-05T12:48:00.464Z,102638.62
2019-02-05T12:50:31.371Z,102644.59
2019-02-05T12:53:00.696Z,102638.52
2019-02-05T12:55:29.271Z,102632.59
2019-02-05T12:57:58.288Z,102634.08
2019-02-05T13:00:32.302Z,102635.25
2019-02-05T13:03:01.022Z,102632.66
2019-02-05T13:05:30.039Z,102628.97
2019-02-05T13:07:58.925Z,102629.55
2019-02-05T13:10:30.504Z,102624.35
2019-02-05T13:12:59.126Z,102628.54
2019-02-05T13:15:27.713Z,102635.73
2019-02-05T13:17:56.373Z,102630.34
2019-02-05T13:20:30.248Z,102625.31
2019-02-05T13:22:59.252Z,102622.39
2019-02-05T13:25:31.818Z,102622.40
2019-02-05T13:28:00.492Z,102622.99
2019-02-05T13:30:31.135Z,102625.48
2019-02-05T13:32:59.714Z,102622.09
2019-02-05T13:35:28.920Z,102619.77
2019-02-05T13:37:57.583Z,102621.03
2019-02-05T13:40:27.973Z,102621.03
2019-02-05T13:42:57.005Z,102628.19
2019-02-05T13:45:28.583Z,102627.09
2019-02-05T13:47:57.439Z,102623.11
2019-02-05T13:50:33.455Z,102631.02
2019-02-05T13:53:01.283Z,102632.05
2019-02-05T13:55:36.031Z,102630.14
2019-02-05T13:58:05.306Z,102623.64
2019-02-05T14:00:36.643Z,102622.52
2019-02-05T14:03:07.076Z,102621.06
2019-02-05T14:05:35.774Z,102621.38
2019-02-05T14:08:04.747Z,102631.66
2019-02-05T14:10:36.260Z,102627.84
2019-02-05T14:13:05.457Z,102627.02
2019-02-05T14:15:36.640Z,102628.23
2019-02-05T14:18:06.209Z,102627.00
2019-02-05T14:20:34.844Z,102629.53
2019-02-05T14:23:03.460Z,102630.20
2019-02-05T14:25:32.030Z,102625.12
2019-02-05T14:28:00.794Z,102633.27
2019-02-05T14:30:34.804Z,102636.77
2019-02-05T14:33:04.318Z,102636.56
2019-02-05T14:35:33.011Z,102632.83
2019-02-05T14:38:02.616Z,102627.30
2019-02-05T14:40:31.211Z,102629.16
2019-02-05T14:42:59.783Z,102625.48
2019-02-05T14:45:28.490Z,102626.42
2019-02-05T14:47:57.523Z,102624.34
2019-02-05T14:50:28.572Z,102625.00
2019-02-05T14:52:57.593Z,102627.37
2019-02-05T14:55:26.130Z,102628.81
2019-02-05T14:57:54.770Z,102626.37
2019-02-05T15:00:34.772Z,102635.21
2019-02-05T15:03:05.876Z,102625.20
2019-02-05T15:05:34.514Z,102628.73
2019-02-05T15:08:05.830Z,102626.77
2019-02-05T15:10:33.551Z,102627.94
2019-02-05T15:13:02.195Z,102629.25
2019-02-05T15:15:31.150Z,102624.08
2019-02-05T15:17:59.655Z,102617.79
2019-02-05T15:20:40.128Z,102618.61
2019-02-05T15:23:09.056Z,102618.20
2019-02-05T15:25:37.868Z,102615.41
2019-02-05T15:28:07.030Z,102614.98
2019-02-05T15:30:38.779Z,102608.14
2019-02-05T15:33:28.370Z,102613.09
2019-02-05T15:35:58.633Z,102612.41
2019-02-05T15:38:27.815Z,102616.73
2019-02-05T15:40:56.437Z,102615.44
2019-02-05T15:43:24.965Z,102612.43
2019-02-05T15:45:53.588Z,102613.39
2019-02-05T15:48:22.124Z,102619.16
2019-02-05T15:50:50.768Z,102615.25
2019-02-05T15:53:19.428Z,102616.91
2019-02-05T15:55:47.970Z,102610.83
2019-02-05T15:58:16.548Z,102609.44
2019-02-05T16:00:45.110Z,102615.56
2019-02-05T16:03:13.884Z,102606.52
2019-02-05T16:05:42.917Z,102610.83
2019-02-05T16:08:11.514Z,102614.09
2019-02-05T16:10:40.407Z,102618.81
2019-02-05T16:13:09.033Z,102624.00
2019-02-05T16:15:37.692Z,102624.17
2019-02-05T16:18:06.497Z,102621.06
2019-02-05T16:20:35.150Z,102627.14
2019-02-05T16:23:04.013Z,102624.17
2019-02-05T16:25:33.600Z,102614.34
2019-02-05T16:28:02.239Z,102612.42
2019-02-05T16:30:31.640Z,102609.34
2019-02-05T16:33:00.269Z,102610.11
2019-02-05T16:35:28.904Z,102608.12
2019-02-05T16:37:57.454Z,102613.15
2019-02-05T16:40:28.441Z,102610.42
2019-02-05T16:42:56.990Z,102608.63
2019-02-05T16:45:28.023Z,102616.75
2019-02-05T16:47:56.657Z,102613.09
2019-02-05T16:50:30.727Z,102617.89
2019-02-05T16:53:00.117Z,102616.76
2019-02-05T16:55:29.033Z,102615.38
2019-02-05T16:57:57.661Z,102617.54
2019-02-05T17:00:34.547Z,102615.05
2019-02-05T17:05:40.805Z,102618.52
2019-02-05T17:08:09.776Z,102615.63
2019-02-05T17:10:39.282Z,102624.64
2019-02-05T17:13:07.887Z,102628.47
2019-02-05T17:15:36.468Z,102623.56
2019-02-05T17:18:05.374Z,102624.51
2019-02-05T17:20:34.955Z,102632.16
2019-02-05T17:23:04.431Z,102625.56
2019-02-05T17:25:35.902Z,102627.41
2019-02-05T17:28:05.996Z,102625.05
2019-02-05T17:30:39.559Z,102629.34
2019-02-05T17:33:08.180Z,102625.98
2019-02-05T17:35:37.134Z,102620.24
2019-02-05T17:38:07.648Z,102620.24
2019-02-05T17:40:37.072Z,102620.09
2019-02-05T17:43:06.291Z,102610.22
2019-02-05T17:45:37.212Z,102610.84
2019-02-05T17:48:09.021Z,102609.63
2019-02-05T17:50:37.688Z,102614.05
2019-02-05T17:53:06.305Z,102608.79
2019-02-05T17:55:35.755Z,102609.05
2019-02-05T17:58:04.360Z,102612.16
2019-02-05T18:00:38.272Z,102610.48
2019-02-05T18:03:07.001Z,102602.69
2019-02-05T18:05:35.909Z,102604.45
2019-02-05T18:08:04.943Z,102602.35
2019-02-05T18:10:33.536Z,102611.15
2019-02-05T18:13:02.156Z,102603.92
2019-02-05T18:15:38.120Z,102600.13
2019-02-05T18:18:07.544Z,102599.81
2019-02-05T18:20:36.418Z,102600.18
2019-02-05T18:23:05.349Z,102602.13
2019-02-05T18:25:33.849Z,102601.97
2019-02-05T18:28:02.428Z,102597.98
2019-02-05T18:30:36.464Z,102607.78
2019-02-05T18:33:05.988Z,102603.84
2019-02-05T18:35:34.771Z,102598.20
2019-02-05T18:38:08.437Z,102599.02
2019-02-05T18:40:36.954Z,102592.73
2019-02-05T18:43:05.659Z,102588.91
2019-02-05T18:45:34.293Z,102584.64
2019-02-05T18:48:02.875Z,102588.23
2019-02-05T18:50:32.132Z,102578.33
2019-02-05T18:53:00.775Z,102568.20
2019-02-05T18:55:35.285Z,102569.65
2019-02-05T18:58:09.545Z,102573.70
2019-02-05T19:00:40.316Z,102567.08
2019-02-05T19:03:15.454Z,102563.56
2019-02-05T19:05:39.592Z,102566.28
2019-02-05T19:08:08.418Z,102566.91
2019-02-05T19:10:37.112Z,102560.42
2019-02-05T19:13:05.794Z,102562.33
2019-02-05T19:15:37.081Z,102562.78
2019-02-05T19:18:06.751Z,102557.83
2019-02-05T19:20:35.476Z,102567.59
2019-02-05T19:23:05.603Z,102557.82
2019-02-05T19:25:38.556Z,102556.33
2019-02-05T19:28:07.554Z,102556.27
2019-02-05T19:30:37.770Z,102545.92
2019-02-05T19:33:06.418Z,102547.59
2019-02-05T19:35:35.053Z,102542.14
2019-02-05T19:38:03.637Z,102550.27
2019-02-05T19:40:32.276Z,102550.85
2019-02-05T19:43:01.178Z,102560.70
2019-02-05T19:45:34.364Z,102557.05
2019-02-05T19:48:04.679Z,102551.27
2019-02-05T19:50:33.233Z,102554.34
2019-02-05T19:53:01.945Z,102548.81
2019-02-05T19:55:30.668Z,102555.70
2019-02-05T19:57:59.507Z,102553.39
2019-02-05T20:00:28.172Z,102551.53
2019-02-05T20:02:56.873Z,102552.70
2019-02-05T20:05:25.474Z,102550.38
2019-02-05T20:07:54.182Z,102545.52
2019-02-05T20:10:22.809Z,102548.85
2019-02-05T20:12:51.322Z,102549.20
2019-02-05T20:15:20.063Z,102538.51
2019-02-05T20:17:48.718Z,102545.70
2019-02-05T20:20:21.577Z,102549.77
2019-02-05T20:22:50.576Z,102544.45
2019-02-05T20:25:19.771Z,102553.33
2019-02-05T20:27:48.535Z,102550.75
2019-02-05T20:30:19.431Z,102549.53
2019-02-05T20:32:48.014Z,102552.48
2019-02-05T20:35:16.642Z,102548.02
2019-02-05T20:37:45.329Z,102549.89
2019-02-05T20:40:19.337Z,102551.94
2019-02-05T20:42:47.949Z,102544.80
2019-02-05T20:45:16.566Z,102545.37
2019-02-05T20:47:45.165Z,102549.94
2019-02-05T20:50:15.783Z,102547.85
2019-02-05T20:52:44.371Z,102546.97
2019-02-05T20:55:18.330Z,102551.31
2019-02-05T20:57:46.927Z,102549.77
2019-02-05T21:00:18.321Z,102550.36
2019-02-05T21:02:47.036Z,102553.59
2019-02-05T21:05:18.028Z,102552.70
2019-02-05T21:07:46.707Z,102558.38
2019-02-05T21:10:27.284Z,102566.89
2019-02-05T21:12:55.966Z,102559.84
2019-02-05T21:15:25.848Z,102556.38
2019-02-05T21:17:54.557Z,102555.69
2019-02-05T21:20:30.307Z,102556.91
2019-02-05T21:22:58.785Z,102551.81
2019-02-05T21:25:28.695Z,102557.19
2019-02-05T21:27:58.454Z,102558.33
2019-02-05T21:30:27.503Z,102562.83
2019-02-05T21:32:56.128Z,102565.63
2019-02-05T21:35:25.050Z,102565.50
2019-02-05T21:37:53.670Z,102560.82
2019-02-05T21:40:24.315Z,102563.59
2019-02-05T21:42:52.920Z,102560.32
2019-02-05T21:45:23.972Z,102556.94
2019-02-05T21:47:53.104Z,102568.86
2019-02-05T21:50:22.743Z,102565.77
2019-02-05T21:52:51.944Z,102569.56
2019-02-05T21:55:22.763Z,102566.88
2019-02-05T21:57:51.475Z,102562.56
2019-02-05T22:00:25.690Z,102548.30
2019-02-05T22:02:54.574Z,102542.36
2019-02-05T22:05:23.494Z,102547.20
2019-02-05T22:07:52.119Z,102546.47
2019-02-05T22:10:21.087Z,102537.06
2019-02-05T22:12:49.892Z,102539.81
2019-02-05T22:15:19.762Z,102541.48
2019-02-05T22:17:48.375Z,102546.28
2019-02-05T22:20:25.832Z,102553.69
2019-02-05T22:22:56.191Z,102553.96
2019-02-05T22:25:27.993Z,102553.96
2019-02-05T22:27:56.601Z,102553.48
2019-02-05T22:30:32.661Z,102543.41
2019-02-05T22:33:01.346Z,102531.98
2019-02-05T22:35:30.012Z,102526.30
2019-02-05T22:37:58.592Z,102525.97
2019-02-05T22:40:28.261Z,102526.42
2019-02-05T22:42:57.248Z,102543.67
2019-02-05T22:45:33.522Z,102539.29
2019-02-05T22:48:02.203Z,102538.47
2019-02-05T22:50:33.682Z,102531.26
2019-02-05T22:53:04.174Z,102531.66
2019-02-05T22:55:32.797Z,102528.37
2019-02-05T22:58:01.433Z,102528.06
2019-02-05T23:00:42.796Z,102530.27
2019-02-05T23:03:11.773Z,102531.48
2019-02-05T23:05:58.767Z,102527.33
2019-02-05T23:08:27.493Z,102527.17
2019-02-05T23:11:17.110Z,102530.57
2019-02-05T23:13:45.706Z,102526.80
2019-02-05T23:16:14.348Z,102516.47
2019-02-05T23:18:42.966Z,102522.71
2019-02-05T23:21:11.579Z,102522.27
2019-02-05T23:23:40.248Z,102521.18
2019-02-05T23:26:09.875Z,102520.20
2019-02-05T23:28:38.550Z,102519.49
2019-02-05T23:31:07.258Z,102514.06
2019-02-05T23:33:35.900Z,102525.27
2019-02-05T23:36:04.826Z,102525.78
2019-02-05T23:38:33.438Z,102518.50
2019-02-05T23:41:02.113Z,102518.79
2019-02-05T23:43:31.127Z,102517.80
2019-02-05T23:46:01.751Z,102515.92
2019-02-05T23:48:30.061Z,102513.68
2019-02-05T23:50:58.664Z,102508.73
2019-02-05T23:53:27.265Z,102510.98
2019-02-05T23:55:55.871Z,102507.34
2019-02-05T23:58:24.508Z,102513.20
